1CO3 weather

Bellmore Farms Airport
Nunn, Colorado, United States

Public forecast

Using degrees Fahrenheit for public forecast. Weather courtesy of forecast.io.

Closest aviation weather report (METAR) to Bellmore Farms Airport

Closest report is Greeley–Weld County Airport, 17.7 nm (32.8 km) SSE. Retrieved 2020/02/22 00:56 UTC (26 minutes ago):

KGXY 220056Z AUTO 22004KT 10SM CLR 06/M04 A3015 RMK AO2 SLP256 T00611039

Closest aviation forecast (TAF) to Bellmore Farms Airport

Closest forecast is Cheyenne Regional Jerry Olson Field, 27.1 nm (50.2 km) N. Retrieved 2020-02-22 00:22 UTC (1 hour ago):

TAF KCYS 212320Z 2200/2224 24009KT P6SM SKC FM220600 28020G30KT P6SM SKC FM221600 26015G25KT P6SM SKC